sensor_id;sensor_type;location;lat;lon;timestamp;P1;durP1;ratioP1;P2;durP2;ratioP2
46463;SDS011;32161;48.148;-1.554;2022-11-15T00:01:07;6.78;;;2.45;;
46463;SDS011;32161;48.148;-1.554;2022-11-15T00:03:35;4.68;;;1.98;;
46463;SDS011;32161;48.148;-1.554;2022-11-15T00:06:03;9.07;;;2.17;;
46463;SDS011;32161;48.148;-1.554;2022-11-15T00:08:31;12.65;;;2.30;;
46463;SDS011;32161;48.148;-1.554;2022-11-15T00:10:59;6.70;;;2.10;;
46463;SDS011;32161;48.148;-1.554;2022-11-15T00:13:29;8.48;;;2.58;;
46463;SDS011;32161;48.148;-1.554;2022-11-15T00:15:57;11.00;;;2.08;;
46463;SDS011;32161;48.148;-1.554;2022-11-15T00:18:27;10.23;;;2.83;;
46463;SDS011;32161;48.148;-1.554;2022-11-15T00:20:55;8.93;;;2.20;;
46463;SDS011;32161;48.148;-1.554;2022-11-15T00:23:30;11.43;;;2.47;;
46463;SDS011;32161;48.148;-1.554;2022-11-15T00:25:58;14.20;;;3.35;;
46463;SDS011;32161;48.148;-1.554;2022-11-15T00:28:26;12.00;;;2.63;;
46463;SDS011;32161;48.148;-1.554;2022-11-15T00:30:53;6.63;;;2.22;;
46463;SDS011;32161;48.148;-1.554;2022-11-15T00:33:28;9.90;;;2.50;;
46463;SDS011;32161;48.148;-1.554;2022-11-15T00:35:59;7.70;;;1.92;;
46463;SDS011;32161;48.148;-1.554;2022-11-15T00:38:30;8.73;;;2.38;;
46463;SDS011;32161;48.148;-1.554;2022-11-15T00:40:59;5.30;;;1.85;;
46463;SDS011;32161;48.148;-1.554;2022-11-15T00:43:27;3.90;;;1.85;;
46463;SDS011;32161;48.148;-1.554;2022-11-15T00:45:55;10.93;;;2.00;;
46463;SDS011;32161;48.148;-1.554;2022-11-15T00:48:22;11.40;;;2.28;;
46463;SDS011;32161;48.148;-1.554;2022-11-15T00:50:52;10.32;;;2.25;;
46463;SDS011;32161;48.148;-1.554;2022-11-15T00:53:19;11.50;;;2.40;;
46463;SDS011;32161;48.148;-1.554;2022-11-15T00:55:47;9.85;;;2.97;;
46463;SDS011;32161;48.148;-1.554;2022-11-15T00:58:14;11.57;;;2.10;;
46463;SDS011;32161;48.148;-1.554;2022-11-15T01:00:42;6.15;;;1.92;;
46463;SDS011;32161;48.148;-1.554;2022-11-15T01:03:09;11.43;;;3.15;;
46463;SDS011;32161;48.148;-1.554;2022-11-15T01:05:37;11.27;;;1.88;;
46463;SDS011;32161;48.148;-1.554;2022-11-15T01:08:06;4.88;;;2.05;;
46463;SDS011;32161;48.148;-1.554;2022-11-15T01:10:38;9.32;;;2.40;;
46463;SDS011;32161;48.148;-1.554;2022-11-15T01:13:06;9.93;;;2.85;;
46463;SDS011;32161;48.148;-1.554;2022-11-15T01:15:34;8.40;;;2.00;;
46463;SDS011;32161;48.148;-1.554;2022-11-15T01:18:05;10.27;;;2.15;;
46463;SDS011;32161;48.148;-1.554;2022-11-15T01:20:33;9.32;;;1.83;;
46463;SDS011;32161;48.148;-1.554;2022-11-15T01:23:00;7.32;;;2.17;;
46463;SDS011;32161;48.148;-1.554;2022-11-15T01:25:29;6.35;;;1.52;;
46463;SDS011;32161;48.148;-1.554;2022-11-15T01:27:57;17.60;;;2.42;;
46463;SDS011;32161;48.148;-1.554;2022-11-15T01:30:24;12.25;;;2.13;;
46463;SDS011;32161;48.148;-1.554;2022-11-15T01:32:52;10.02;;;2.20;;
46463;SDS011;32161;48.148;-1.554;2022-11-15T01:35:20;9.57;;;1.88;;
46463;SDS011;32161;48.148;-1.554;2022-11-15T01:37:48;14.75;;;4.00;;
46463;SDS011;32161;48.148;-1.554;2022-11-15T01:40:15;13.55;;;3.30;;
46463;SDS011;32161;48.148;-1.554;2022-11-15T01:42:44;9.02;;;1.90;;
46463;SDS011;32161;48.148;-1.554;2022-11-15T01:45:12;8.63;;;1.70;;
46463;SDS011;32161;48.148;-1.554;2022-11-15T01:47:42;9.40;;;1.60;;
46463;SDS011;32161;48.148;-1.554;2022-11-15T01:50:14;12.32;;;2.38;;
46463;SDS011;32161;48.148;-1.554;2022-11-15T01:52:46;5.00;;;1.88;;
46463;SDS011;32161;48.148;-1.554;2022-11-15T01:55:14;10.68;;;1.77;;
46463;SDS011;32161;48.148;-1.554;2022-11-15T01:57:48;10.90;;;1.65;;
46463;SDS011;32161;48.148;-1.554;2022-11-15T02:00:20;7.97;;;1.48;;
46463;SDS011;32161;48.148;-1.554;2022-11-15T02:02:47;6.28;;;1.60;;
46463;SDS011;32161;48.148;-1.554;2022-11-15T02:05:15;6.30;;;1.88;;
46463;SDS011;32161;48.148;-1.554;2022-11-15T02:07:43;5.70;;;1.73;;
46463;SDS011;32161;48.148;-1.554;2022-11-15T02:10:13;7.70;;;1.65;;
46463;SDS011;32161;48.148;-1.554;2022-11-15T02:12:45;6.85;;;1.60;;
46463;SDS011;32161;48.148;-1.554;2022-11-15T02:15:15;13.02;;;2.30;;
46463;SDS011;32161;48.148;-1.554;2022-11-15T02:17:47;6.15;;;1.50;;
46463;SDS011;32161;48.148;-1.554;2022-11-15T02:20:40;7.43;;;1.50;;
46463;SDS011;32161;48.148;-1.554;2022-11-15T02:32:57;5.90;;;1.38;;
46463;SDS011;32161;48.148;-1.554;2022-11-15T02:35:32;7.60;;;1.38;;
46463;SDS011;32161;48.148;-1.554;2022-11-15T02:38:12;5.68;;;1.27;;
46463;SDS011;32161;48.148;-1.554;2022-11-15T02:40:49;14.18;;;1.55;;
46463;SDS011;32161;48.148;-1.554;2022-11-15T02:43:24;12.15;;;1.25;;
46463;SDS011;32161;48.148;-1.554;2022-11-15T02:46:17;7.28;;;1.55;;
46463;SDS011;32161;48.148;-1.554;2022-11-15T02:49:10;10.10;;;1.20;;
46463;SDS011;32161;48.148;-1.554;2022-11-15T02:51:39;10.82;;;1.85;;
46463;SDS011;32161;48.148;-1.554;2022-11-15T02:54:11;13.60;;;1.42;;
46463;SDS011;32161;48.148;-1.554;2022-11-15T02:59:13;5.93;;;0.95;;
46463;SDS011;32161;48.148;-1.554;2022-11-15T03:02:11;4.82;;;1.25;;
46463;SDS011;32161;48.148;-1.554;2022-11-15T03:05:02;9.70;;;0.90;;
46463;SDS011;32161;48.148;-1.554;2022-11-15T03:07:40;8.75;;;1.30;;
46463;SDS011;32161;48.148;-1.554;2022-11-15T03:10:18;4.55;;;1.13;;
46463;SDS011;32161;48.148;-1.554;2022-11-15T03:12:54;9.52;;;1.25;;
46463;SDS011;32161;48.148;-1.554;2022-11-15T03:15:27;7.63;;;1.52;;
46463;SDS011;32161;48.148;-1.554;2022-11-15T03:18:02;5.15;;;0.95;;
46463;SDS011;32161;48.148;-1.554;2022-11-15T03:20:38;10.77;;;1.35;;
46463;SDS011;32161;48.148;-1.554;2022-11-15T03:23:09;6.95;;;1.33;;
46463;SDS011;32161;48.148;-1.554;2022-11-15T03:25:38;7.25;;;1.25;;
46463;SDS011;32161;48.148;-1.554;2022-11-15T03:28:12;13.25;;;1.17;;
46463;SDS011;32161;48.148;-1.554;2022-11-15T03:30:54;11.38;;;1.40;;
46463;SDS011;32161;48.148;-1.554;2022-11-15T03:33:24;10.88;;;1.52;;
46463;SDS011;32161;48.148;-1.554;2022-11-15T03:35:54;13.35;;;1.80;;
46463;SDS011;32161;48.148;-1.554;2022-11-15T03:38:23;8.15;;;1.50;;
46463;SDS011;32161;48.148;-1.554;2022-11-15T03:40:57;14.50;;;2.33;;
46463;SDS011;32161;48.148;-1.554;2022-11-15T03:43:29;8.73;;;1.67;;
46463;SDS011;32161;48.148;-1.554;2022-11-15T03:46:04;5.80;;;1.20;;
46463;SDS011;32161;48.148;-1.554;2022-11-15T03:48:41;11.00;;;1.20;;
46463;SDS011;32161;48.148;-1.554;2022-11-15T03:51:16;11.93;;;1.83;;
46463;SDS011;32161;48.148;-1.554;2022-11-15T03:53:44;12.15;;;1.23;;
46463;SDS011;32161;48.148;-1.554;2022-11-15T03:56:12;7.10;;;1.10;;
46463;SDS011;32161;48.148;-1.554;2022-11-15T03:58:40;8.15;;;1.02;;
46463;SDS011;32161;48.148;-1.554;2022-11-15T04:01:07;5.32;;;0.98;;
46463;SDS011;32161;48.148;-1.554;2022-11-15T04:03:35;11.05;;;1.30;;
46463;SDS011;32161;48.148;-1.554;2022-11-15T04:06:04;13.48;;;1.55;;
46463;SDS011;32161;48.148;-1.554;2022-11-15T04:08:32;8.65;;;1.30;;
46463;SDS011;32161;48.148;-1.554;2022-11-15T04:11:00;5.15;;;1.02;;
46463;SDS011;32161;48.148;-1.554;2022-11-15T04:13:27;6.68;;;1.13;;
46463;SDS011;32161;48.148;-1.554;2022-11-15T04:15:55;6.60;;;1.38;;
46463;SDS011;32161;48.148;-1.554;2022-11-15T04:18:22;3.90;;;0.60;;
46463;SDS011;32161;48.148;-1.554;2022-11-15T04:20:50;5.65;;;1.02;;
46463;SDS011;32161;48.148;-1.554;2022-11-15T04:23:36;8.80;;;1.83;;
46463;SDS011;32161;48.148;-1.554;2022-11-15T04:26:21;10.20;;;0.90;;
46463;SDS011;32161;48.148;-1.554;2022-11-15T04:28:50;4.43;;;1.20;;
46463;SDS011;32161;48.148;-1.554;2022-11-15T04:31:34;3.85;;;0.80;;
46463;SDS011;32161;48.148;-1.554;2022-11-15T04:34:02;10.77;;;1.98;;
46463;SDS011;32161;48.148;-1.554;2022-11-15T04:36:29;6.20;;;1.10;;
46463;SDS011;32161;48.148;-1.554;2022-11-15T04:39:16;8.27;;;1.33;;
46463;SDS011;32161;48.148;-1.554;2022-11-15T04:41:43;8.00;;;1.05;;
46463;SDS011;32161;48.148;-1.554;2022-11-15T04:44:11;7.68;;;1.40;;
46463;SDS011;32161;48.148;-1.554;2022-11-15T04:46:38;6.20;;;1.52;;
46463;SDS011;32161;48.148;-1.554;2022-11-15T04:49:06;8.60;;;1.42;;
46463;SDS011;32161;48.148;-1.554;2022-11-15T04:51:34;9.25;;;1.27;;
46463;SDS011;32161;48.148;-1.554;2022-11-15T04:54:01;8.90;;;1.00;;
46463;SDS011;32161;48.148;-1.554;2022-11-15T04:56:30;11.10;;;1.10;;
46463;SDS011;32161;48.148;-1.554;2022-11-15T04:58:58;6.15;;;1.00;;
46463;SDS011;32161;48.148;-1.554;2022-11-15T05:01:26;4.78;;;0.95;;
46463;SDS011;32161;48.148;-1.554;2022-11-15T05:03:53;11.23;;;1.33;;
46463;SDS011;32161;48.148;-1.554;2022-11-15T05:06:38;7.07;;;2.05;;
46463;SDS011;32161;48.148;-1.554;2022-11-15T05:09:06;6.40;;;1.05;;
46463;SDS011;32161;48.148;-1.554;2022-11-15T05:11:35;6.28;;;1.02;;
46463;SDS011;32161;48.148;-1.554;2022-11-15T05:14:03;6.30;;;1.20;;
46463;SDS011;32161;48.148;-1.554;2022-11-15T05:16:30;9.35;;;1.17;;
46463;SDS011;32161;48.148;-1.554;2022-11-15T05:18:58;7.55;;;1.35;;
46463;SDS011;32161;48.148;-1.554;2022-11-15T05:21:25;10.75;;;1.33;;
46463;SDS011;32161;48.148;-1.554;2022-11-15T05:23:53;10.07;;;1.35;;
46463;SDS011;32161;48.148;-1.554;2022-11-15T05:26:20;8.73;;;1.00;;
46463;SDS011;32161;48.148;-1.554;2022-11-15T05:28:52;5.85;;;1.20;;
46463;SDS011;32161;48.148;-1.554;2022-11-15T05:31:21;6.95;;;1.52;;
46463;SDS011;32161;48.148;-1.554;2022-11-15T05:33:49;6.28;;;1.15;;
46463;SDS011;32161;48.148;-1.554;2022-11-15T05:36:18;8.27;;;1.08;;
46463;SDS011;32161;48.148;-1.554;2022-11-15T05:38:55;4.25;;;2.00;;
46463;SDS011;32161;48.148;-1.554;2022-11-15T05:41:24;6.75;;;1.05;;
46463;SDS011;32161;48.148;-1.554;2022-11-15T05:43:58;12.43;;;2.10;;
46463;SDS011;32161;48.148;-1.554;2022-11-15T05:46:27;8.05;;;1.45;;
46463;SDS011;32161;48.148;-1.554;2022-11-15T05:48:55;8.75;;;1.33;;
46463;SDS011;32161;48.148;-1.554;2022-11-15T05:51:24;4.35;;;1.10;;
46463;SDS011;32161;48.148;-1.554;2022-11-15T05:53:55;10.73;;;1.70;;
46463;SDS011;32161;48.148;-1.554;2022-11-15T05:56:24;8.23;;;1.15;;
46463;SDS011;32161;48.148;-1.554;2022-11-15T05:58:52;6.95;;;1.60;;
46463;SDS011;32161;48.148;-1.554;2022-11-15T06:01:23;8.88;;;1.35;;
46463;SDS011;32161;48.148;-1.554;2022-11-15T06:03:53;10.18;;;1.20;;
46463;SDS011;32161;48.148;-1.554;2022-11-15T06:06:20;10.93;;;1.80;;
46463;SDS011;32161;48.148;-1.554;2022-11-15T06:08:48;7.85;;;1.40;;
46463;SDS011;32161;48.148;-1.554;2022-11-15T06:11:16;10.70;;;1.63;;
46463;SDS011;32161;48.148;-1.554;2022-11-15T06:13:43;8.25;;;1.40;;
46463;SDS011;32161;48.148;-1.554;2022-11-15T06:16:11;4.95;;;1.15;;
46463;SDS011;32161;48.148;-1.554;2022-11-15T06:18:40;10.82;;;1.60;;
46463;SDS011;32161;48.148;-1.554;2022-11-15T06:21:08;3.83;;;1.73;;
46463;SDS011;32161;48.148;-1.554;2022-11-15T06:23:35;9.27;;;2.13;;
46463;SDS011;32161;48.148;-1.554;2022-11-15T06:26:03;12.20;;;1.48;;
46463;SDS011;32161;48.148;-1.554;2022-11-15T06:28:31;6.15;;;1.90;;
46463;SDS011;32161;48.148;-1.554;2022-11-15T06:31:02;9.25;;;1.45;;
46463;SDS011;32161;48.148;-1.554;2022-11-15T06:33:30;7.53;;;1.27;;
46463;SDS011;32161;48.148;-1.554;2022-11-15T06:36:01;8.57;;;1.73;;
46463;SDS011;32161;48.148;-1.554;2022-11-15T06:38:28;6.32;;;1.95;;
46463;SDS011;32161;48.148;-1.554;2022-11-15T06:41:00;6.53;;;1.63;;
46463;SDS011;32161;48.148;-1.554;2022-11-15T06:43:29;6.10;;;1.30;;
46463;SDS011;32161;48.148;-1.554;2022-11-15T06:45:57;8.32;;;1.50;;
46463;SDS011;32161;48.148;-1.554;2022-11-15T06:48:25;7.75;;;1.92;;
46463;SDS011;32161;48.148;-1.554;2022-11-15T06:50:53;5.88;;;1.55;;
46463;SDS011;32161;48.148;-1.554;2022-11-15T06:53:23;6.07;;;1.45;;
46463;SDS011;32161;48.148;-1.554;2022-11-15T06:55:51;8.80;;;1.90;;
46463;SDS011;32161;48.148;-1.554;2022-11-15T06:58:20;6.00;;;1.80;;
46463;SDS011;32161;48.148;-1.554;2022-11-15T07:00:48;4.25;;;1.27;;
46463;SDS011;32161;48.148;-1.554;2022-11-15T07:03:15;6.15;;;1.50;;
46463;SDS011;32161;48.148;-1.554;2022-11-15T07:05:49;5.88;;;1.70;;
46463;SDS011;32161;48.148;-1.554;2022-11-15T07:08:19;7.75;;;2.03;;
46463;SDS011;32161;48.148;-1.554;2022-11-15T07:10:49;6.03;;;1.65;;
46463;SDS011;32161;48.148;-1.554;2022-11-15T07:13:16;5.90;;;1.60;;
46463;SDS011;32161;48.148;-1.554;2022-11-15T07:15:44;3.53;;;1.33;;
46463;SDS011;32161;48.148;-1.554;2022-11-15T07:18:12;7.72;;;2.03;;
46463;SDS011;32161;48.148;-1.554;2022-11-15T07:20:39;5.25;;;1.80;;
46463;SDS011;32161;48.148;-1.554;2022-11-15T07:23:07;7.32;;;1.77;;
46463;SDS011;32161;48.148;-1.554;2022-11-15T07:25:34;9.10;;;1.38;;
46463;SDS011;32161;48.148;-1.554;2022-11-15T07:28:04;6.45;;;1.50;;
46463;SDS011;32161;48.148;-1.554;2022-11-15T07:30:31;6.22;;;2.10;;
46463;SDS011;32161;48.148;-1.554;2022-11-15T07:32:59;3.83;;;1.35;;
46463;SDS011;32161;48.148;-1.554;2022-11-15T07:35:27;7.53;;;1.40;;
46463;SDS011;32161;48.148;-1.554;2022-11-15T07:37:56;5.05;;;1.30;;
46463;SDS011;32161;48.148;-1.554;2022-11-15T07:40:25;2.70;;;1.20;;
46463;SDS011;32161;48.148;-1.554;2022-11-15T07:42:58;5.60;;;1.40;;
46463;SDS011;32161;48.148;-1.554;2022-11-15T07:45:28;5.72;;;2.90;;
46463;SDS011;32161;48.148;-1.554;2022-11-15T07:47:56;6.75;;;1.45;;
46463;SDS011;32161;48.148;-1.554;2022-11-15T07:50:23;2.75;;;1.40;;
46463;SDS011;32161;48.148;-1.554;2022-11-15T07:52:54;6.05;;;1.95;;
46463;SDS011;32161;48.148;-1.554;2022-11-15T07:55:23;5.30;;;1.42;;
46463;SDS011;32161;48.148;-1.554;2022-11-15T07:57:52;3.85;;;1.60;;
46463;SDS011;32161;48.148;-1.554;2022-11-15T08:00:25;2.88;;;2.00;;
46463;SDS011;32161;48.148;-1.554;2022-11-15T08:03:00;3.85;;;1.30;;
46463;SDS011;32161;48.148;-1.554;2022-11-15T08:05:30;2.25;;;1.10;;
46463;SDS011;32161;48.148;-1.554;2022-11-15T08:07:58;5.88;;;1.50;;
46463;SDS011;32161;48.148;-1.554;2022-11-15T08:10:26;2.22;;;1.35;;
46463;SDS011;32161;48.148;-1.554;2022-11-15T08:12:58;4.93;;;1.55;;
46463;SDS011;32161;48.148;-1.554;2022-11-15T08:17:56;2.85;;;1.10;;
46463;SDS011;32161;48.148;-1.554;2022-11-15T08:20:27;1.95;;;1.42;;
46463;SDS011;32161;48.148;-1.554;2022-11-15T08:22:55;1.90;;;1.13;;
46463;SDS011;32161;48.148;-1.554;2022-11-15T08:25:23;2.28;;;0.80;;
46463;SDS011;32161;48.148;-1.554;2022-11-15T08:27:52;2.70;;;1.10;;
46463;SDS011;32161;48.148;-1.554;2022-11-15T08:30:20;1.77;;;1.10;;
46463;SDS011;32161;48.148;-1.554;2022-11-15T08:32:51;1.48;;;1.00;;
46463;SDS011;32161;48.148;-1.554;2022-11-15T08:35:20;0.80;;;0.80;;
46463;SDS011;32161;48.148;-1.554;2022-11-15T08:37:47;3.40;;;1.25;;
46463;SDS011;32161;48.148;-1.554;2022-11-15T08:40:15;2.85;;;0.93;;
46463;SDS011;32161;48.148;-1.554;2022-11-15T08:42:45;2.10;;;0.95;;
46463;SDS011;32161;48.148;-1.554;2022-11-15T08:45:13;1.77;;;1.23;;
46463;SDS011;32161;48.148;-1.554;2022-11-15T08:47:41;0.77;;;0.77;;
46463;SDS011;32161;48.148;-1.554;2022-11-15T08:50:10;3.72;;;0.80;;
46463;SDS011;32161;48.148;-1.554;2022-11-15T08:52:38;1.02;;;0.75;;
46463;SDS011;32161;48.148;-1.554;2022-11-15T08:55:05;2.97;;;0.88;;
46463;SDS011;32161;48.148;-1.554;2022-11-15T08:57:34;2.10;;;0.98;;
46463;SDS011;32161;48.148;-1.554;2022-11-15T09:00:02;2.85;;;0.80;;
46463;SDS011;32161;48.148;-1.554;2022-11-15T09:02:31;0.75;;;0.70;;
46463;SDS011;32161;48.148;-1.554;2022-11-15T09:04:58;1.38;;;0.80;;
46463;SDS011;32161;48.148;-1.554;2022-11-15T09:07:27;1.15;;;0.65;;
46463;SDS011;32161;48.148;-1.554;2022-11-15T09:09:55;4.88;;;0.60;;
46463;SDS011;32161;48.148;-1.554;2022-11-15T09:12:23;1.85;;;0.73;;
46463;SDS011;32161;48.148;-1.554;2022-11-15T09:14:52;0.60;;;0.60;;
46463;SDS011;32161;48.148;-1.554;2022-11-15T09:17:19;3.47;;;1.75;;
46463;SDS011;32161;48.148;-1.554;2022-11-15T09:19:47;1.88;;;0.55;;
46463;SDS011;32161;48.148;-1.554;2022-11-15T09:22:14;1.40;;;0.60;;
46463;SDS011;32161;48.148;-1.554;2022-11-15T09:24:44;1.48;;;0.73;;
46463;SDS011;32161;48.148;-1.554;2022-11-15T09:27:11;1.98;;;0.75;;
46463;SDS011;32161;48.148;-1.554;2022-11-15T09:29:39;2.55;;;0.63;;
46463;SDS011;32161;48.148;-1.554;2022-11-15T09:32:06;0.70;;;0.70;;
46463;SDS011;32161;48.148;-1.554;2022-11-15T09:34:34;1.77;;;0.55;;
46463;SDS011;32161;48.148;-1.554;2022-11-15T09:37:02;2.00;;;0.85;;
46463;SDS011;32161;48.148;-1.554;2022-11-15T09:39:29;3.55;;;0.80;;
46463;SDS011;32161;48.148;-1.554;2022-11-15T09:42:01;3.25;;;1.20;;
46463;SDS011;32161;48.148;-1.554;2022-11-15T09:45:02;4.50;;;0.88;;
46463;SDS011;32161;48.148;-1.554;2022-11-15T09:47:51;3.72;;;1.30;;
46463;SDS011;32161;48.148;-1.554;2022-11-15T09:50:43;6.70;;;1.02;;
46463;SDS011;32161;48.148;-1.554;2022-11-15T09:53:16;4.15;;;0.93;;
46463;SDS011;32161;48.148;-1.554;2022-11-15T09:55:51;7.50;;;1.30;;
46463;SDS011;32161;48.148;-1.554;2022-11-15T09:58:26;4.07;;;1.10;;
46463;SDS011;32161;48.148;-1.554;2022-11-15T10:01:04;3.60;;;1.13;;
46463;SDS011;32161;48.148;-1.554;2022-11-15T10:03:38;5.53;;;1.20;;
46463;SDS011;32161;48.148;-1.554;2022-11-15T10:06:08;4.65;;;0.90;;
46463;SDS011;32161;48.148;-1.554;2022-11-15T10:08:51;3.03;;;1.27;;
46463;SDS011;32161;48.148;-1.554;2022-11-15T10:11:25;1.50;;;1.40;;
46463;SDS011;32161;48.148;-1.554;2022-11-15T10:19:46;4.43;;;1.30;;
46463;SDS011;32161;48.148;-1.554;2022-11-15T10:22:27;4.88;;;1.35;;
46463;SDS011;32161;48.148;-1.554;2022-11-15T10:25:21;2.38;;;1.15;;
46463;SDS011;32161;48.148;-1.554;2022-11-15T10:27:53;4.03;;;1.15;;
46463;SDS011;32161;48.148;-1.554;2022-11-15T10:30:29;3.70;;;1.80;;
46463;SDS011;32161;48.148;-1.554;2022-11-15T10:33:12;5.28;;;1.30;;
46463;SDS011;32161;48.148;-1.554;2022-11-15T10:38:57;7.07;;;1.50;;
46463;SDS011;32161;48.148;-1.554;2022-11-15T10:44:20;7.43;;;1.60;;
46463;SDS011;32161;48.148;-1.554;2022-11-15T10:47:21;7.05;;;1.10;;
46463;SDS011;32161;48.148;-1.554;2022-11-15T10:49:53;6.38;;;1.38;;
46463;SDS011;32161;48.148;-1.554;2022-11-15T10:52:27;3.22;;;1.50;;
46463;SDS011;32161;48.148;-1.554;2022-11-15T10:54:57;3.63;;;1.13;;
46463;SDS011;32161;48.148;-1.554;2022-11-15T10:57:32;3.65;;;1.20;;
46463;SDS011;32161;48.148;-1.554;2022-11-15T11:00:04;5.20;;;1.17;;
46463;SDS011;32161;48.148;-1.554;2022-11-15T11:02:58;5.25;;;1.13;;
46463;SDS011;32161;48.148;-1.554;2022-11-15T11:05:28;9.07;;;1.70;;
46463;SDS011;32161;48.148;-1.554;2022-11-15T11:07:59;7.70;;;2.17;;
46463;SDS011;32161;48.148;-1.554;2022-11-15T11:10:29;6.82;;;1.70;;
46463;SDS011;32161;48.148;-1.554;2022-11-15T11:13:11;6.53;;;2.03;;
46463;SDS011;32161;48.148;-1.554;2022-11-15T11:15:41;13.80;;;1.70;;
46463;SDS011;32161;48.148;-1.554;2022-11-15T11:18:14;7.90;;;1.48;;
46463;SDS011;32161;48.148;-1.554;2022-11-15T11:20:51;5.88;;;1.60;;
46463;SDS011;32161;48.148;-1.554;2022-11-15T11:23:31;9.60;;;1.85;;
46463;SDS011;32161;48.148;-1.554;2022-11-15T11:26:17;10.85;;;1.55;;
46463;SDS011;32161;48.148;-1.554;2022-11-15T11:29:16;5.68;;;1.48;;
46463;SDS011;32161;48.148;-1.554;2022-11-15T11:32:01;8.95;;;1.70;;
46463;SDS011;32161;48.148;-1.554;2022-11-15T11:34:45;10.05;;;1.83;;
46463;SDS011;32161;48.148;-1.554;2022-11-15T11:37:26;8.63;;;2.00;;
46463;SDS011;32161;48.148;-1.554;2022-11-15T11:40:07;5.88;;;1.40;;
46463;SDS011;32161;48.148;-1.554;2022-11-15T11:42:50;7.90;;;1.80;;
46463;SDS011;32161;48.148;-1.554;2022-11-15T11:45:35;6.70;;;1.55;;
46463;SDS011;32161;48.148;-1.554;2022-11-15T11:48:38;17.25;;;1.85;;
46463;SDS011;32161;48.148;-1.554;2022-11-15T11:51:13;4.97;;;1.58;;
46463;SDS011;32161;48.148;-1.554;2022-11-15T11:53:47;12.20;;;1.98;;
46463;SDS011;32161;48.148;-1.554;2022-11-15T11:56:25;11.88;;;2.03;;
46463;SDS011;32161;48.148;-1.554;2022-11-15T11:58:57;9.65;;;1.92;;
46463;SDS011;32161;48.148;-1.554;2022-11-15T12:01:40;7.00;;;1.48;;
46463;SDS011;32161;48.148;-1.554;2022-11-15T12:04:11;10.02;;;2.70;;
46463;SDS011;32161;48.148;-1.554;2022-11-15T12:06:47;10.93;;;2.17;;
46463;SDS011;32161;48.148;-1.554;2022-11-15T12:09:21;10.00;;;1.80;;
46463;SDS011;32161;48.148;-1.554;2022-11-15T12:11:57;11.90;;;2.00;;
46463;SDS011;32161;48.148;-1.554;2022-11-15T12:14:32;8.18;;;1.50;;
46463;SDS011;32161;48.148;-1.554;2022-11-15T12:17:16;9.25;;;2.17;;
46463;SDS011;32161;48.148;-1.554;2022-11-15T12:19:49;10.02;;;2.15;;
46463;SDS011;32161;48.148;-1.554;2022-11-15T12:22:20;14.45;;;2.28;;
46463;SDS011;32161;48.148;-1.554;2022-11-15T12:24:51;9.18;;;1.58;;
46463;SDS011;32161;48.148;-1.554;2022-11-15T12:27:29;11.43;;;2.10;;
46463;SDS011;32161;48.148;-1.554;2022-11-15T12:30:03;11.63;;;2.00;;
46463;SDS011;32161;48.148;-1.554;2022-11-15T12:32:37;9.48;;;2.35;;
46463;SDS011;32161;48.148;-1.554;2022-11-15T12:35:20;11.73;;;2.17;;
46463;SDS011;32161;48.148;-1.554;2022-11-15T12:37:58;9.18;;;2.35;;
46463;SDS011;32161;48.148;-1.554;2022-11-15T12:40:27;14.15;;;1.75;;
46463;SDS011;32161;48.148;-1.554;2022-11-15T12:46:04;19.92;;;2.55;;
46463;SDS011;32161;48.148;-1.554;2022-11-15T12:57:39;12.77;;;2.95;;
46463;SDS011;32161;48.148;-1.554;2022-11-15T13:03:17;13.05;;;1.75;;
46463;SDS011;32161;48.148;-1.554;2022-11-15T13:05:52;11.35;;;1.95;;
46463;SDS011;32161;48.148;-1.554;2022-11-15T13:08:51;11.13;;;1.98;;
46463;SDS011;32161;48.148;-1.554;2022-11-15T13:17:31;14.35;;;1.60;;
46463;SDS011;32161;48.148;-1.554;2022-11-15T13:20:17;12.40;;;1.90;;
46463;SDS011;32161;48.148;-1.554;2022-11-15T13:22:49;9.75;;;1.45;;
46463;SDS011;32161;48.148;-1.554;2022-11-15T13:25:26;12.52;;;1.63;;
46463;SDS011;32161;48.148;-1.554;2022-11-15T13:28:20;6.15;;;1.42;;
46463;SDS011;32161;48.148;-1.554;2022-11-15T13:33:24;6.78;;;1.20;;
46463;SDS011;32161;48.148;-1.554;2022-11-15T13:35:57;7.78;;;2.08;;
46463;SDS011;32161;48.148;-1.554;2022-11-15T13:38:29;7.90;;;1.50;;
46463;SDS011;32161;48.148;-1.554;2022-11-15T13:40:59;12.32;;;2.13;;
46463;SDS011;32161;48.148;-1.554;2022-11-15T13:46:12;15.25;;;3.78;;
46463;SDS011;32161;48.148;-1.554;2022-11-15T13:48:44;9.25;;;1.73;;
46463;SDS011;32161;48.148;-1.554;2022-11-15T13:51:15;4.55;;;1.17;;
46463;SDS011;32161;48.148;-1.554;2022-11-15T13:53:50;10.10;;;1.42;;
46463;SDS011;32161;48.148;-1.554;2022-11-15T13:56:23;10.68;;;2.03;;
46463;SDS011;32161;48.148;-1.554;2022-11-15T13:58:54;8.88;;;1.70;;
46463;SDS011;32161;48.148;-1.554;2022-11-15T14:01:22;10.45;;;1.25;;
46463;SDS011;32161;48.148;-1.554;2022-11-15T14:03:53;13.63;;;1.98;;
46463;SDS011;32161;48.148;-1.554;2022-11-15T14:06:24;7.32;;;1.58;;
46463;SDS011;32161;48.148;-1.554;2022-11-15T14:09:00;6.22;;;1.23;;
46463;SDS011;32161;48.148;-1.554;2022-11-15T14:11:58;7.70;;;1.50;;
46463;SDS011;32161;48.148;-1.554;2022-11-15T14:14:28;2.22;;;1.13;;
46463;SDS011;32161;48.148;-1.554;2022-11-15T14:16:57;8.13;;;1.67;;
46463;SDS011;32161;48.148;-1.554;2022-11-15T14:19:34;4.78;;;0.70;;
46463;SDS011;32161;48.148;-1.554;2022-11-15T14:22:07;12.50;;;2.05;;
46463;SDS011;32161;48.148;-1.554;2022-11-15T14:24:46;5.40;;;0.88;;
46463;SDS011;32161;48.148;-1.554;2022-11-15T14:27:42;9.95;;;1.38;;
46463;SDS011;32161;48.148;-1.554;2022-11-15T14:30:32;7.03;;;1.85;;
46463;SDS011;32161;48.148;-1.554;2022-11-15T14:33:00;7.25;;;1.35;;
46463;SDS011;32161;48.148;-1.554;2022-11-15T14:35:40;5.47;;;1.08;;
46463;SDS011;32161;48.148;-1.554;2022-11-15T14:38:08;5.05;;;1.17;;
46463;SDS011;32161;48.148;-1.554;2022-11-15T14:40:36;5.20;;;0.73;;
46463;SDS011;32161;48.148;-1.554;2022-11-15T14:43:04;8.80;;;1.58;;
46463;SDS011;32161;48.148;-1.554;2022-11-15T14:45:35;9.03;;;1.13;;
46463;SDS011;32161;48.148;-1.554;2022-11-15T14:48:03;6.43;;;1.15;;
46463;SDS011;32161;48.148;-1.554;2022-11-15T14:50:32;4.28;;;0.93;;
46463;SDS011;32161;48.148;-1.554;2022-11-15T14:53:00;7.22;;;1.33;;
46463;SDS011;32161;48.148;-1.554;2022-11-15T14:55:30;4.85;;;1.08;;
46463;SDS011;32161;48.148;-1.554;2022-11-15T14:58:01;4.68;;;1.05;;
46463;SDS011;32161;48.148;-1.554;2022-11-15T15:00:29;5.88;;;0.93;;
46463;SDS011;32161;48.148;-1.554;2022-11-15T15:02:58;8.15;;;1.27;;
46463;SDS011;32161;48.148;-1.554;2022-11-15T15:05:29;7.88;;;1.40;;
46463;SDS011;32161;48.148;-1.554;2022-11-15T15:07:59;6.47;;;0.98;;
46463;SDS011;32161;48.148;-1.554;2022-11-15T15:10:27;6.68;;;1.27;;
46463;SDS011;32161;48.148;-1.554;2022-11-15T15:12:59;6.97;;;1.20;;
46463;SDS011;32161;48.148;-1.554;2022-11-15T15:15:29;3.58;;;1.00;;
46463;SDS011;32161;48.148;-1.554;2022-11-15T15:18:01;6.88;;;0.98;;
46463;SDS011;32161;48.148;-1.554;2022-11-15T15:20:30;1.75;;;0.45;;
46463;SDS011;32161;48.148;-1.554;2022-11-15T15:22:58;5.72;;;1.42;;
46463;SDS011;32161;48.148;-1.554;2022-11-15T15:25:27;5.43;;;0.70;;
46463;SDS011;32161;48.148;-1.554;2022-11-15T15:27:58;5.35;;;1.00;;
46463;SDS011;32161;48.148;-1.554;2022-11-15T15:30:26;2.25;;;0.60;;
46463;SDS011;32161;48.148;-1.554;2022-11-15T15:32:56;3.20;;;0.77;;
46463;SDS011;32161;48.148;-1.554;2022-11-15T15:35:25;4.00;;;1.23;;
46463;SDS011;32161;48.148;-1.554;2022-11-15T15:37:58;3.03;;;0.65;;
46463;SDS011;32161;48.148;-1.554;2022-11-15T15:40:27;5.35;;;0.80;;
46463;SDS011;32161;48.148;-1.554;2022-11-15T15:42:57;4.50;;;0.85;;
46463;SDS011;32161;48.148;-1.554;2022-11-15T15:45:25;8.25;;;1.20;;
46463;SDS011;32161;48.148;-1.554;2022-11-15T15:47:54;4.63;;;1.17;;
46463;SDS011;32161;48.148;-1.554;2022-11-15T15:50:23;3.75;;;0.82;;
46463;SDS011;32161;48.148;-1.554;2022-11-15T15:52:54;5.72;;;0.88;;